createdAt,value
2023-01-21T00:03:37.470Z,170.47059
2023-01-21T00:08:39.831Z,170.47059
2023-01-21T00:13:41.935Z,166.38267
2023-01-21T00:18:43.851Z,165.58273
2023-01-21T00:23:45.589Z,167.18841
2023-01-21T00:28:47.439Z,156.41379
2023-01-21T00:33:49.305Z,160.14035
2023-01-21T00:38:51.334Z,157.88889
2023-01-21T00:43:53.005Z,160.14035
2023-01-21T00:48:54.816Z,158.63415
2023-01-21T00:53:57.296Z,158.63415
2023-01-21T00:58:58.956Z,157.88889
2023-01-21T01:04:00.833Z,155.68385
2023-01-21T01:09:02.610Z,156.41379
2023-01-21T01:14:04.251Z,153.52381
2023-01-21T01:19:05.839Z,152.81356
2023-01-21T01:24:07.503Z,150.71141
2023-01-21T01:29:09.092Z,147.30033
2023-01-21T01:34:10.630Z,143.35275
2023-01-21T01:39:12.106Z,137.71069
2023-01-21T01:44:13.751Z,134.71207
2023-01-21T01:49:15.367Z,131.23404
2023-01-21T01:54:16.974Z,128.43114
2023-01-21T01:59:18.424Z,125.71091
2023-01-21T02:04:20.262Z,123.06977
2023-01-21T02:09:22.130Z,119
2023-01-21T02:14:24.164Z,117.03371
2023-01-21T02:19:25.709Z,114.63712
2023-01-21T02:24:27.400Z,113.23077
2023-01-21T02:29:29.091Z,114.16575
2023-01-21T02:34:30.899Z,114.63712
2023-01-21T02:39:32.868Z,109.5914
2023-01-21T02:44:34.639Z,111.3913
2023-01-21T02:49:36.476Z,109.5914
2023-01-21T02:54:38.264Z,111.84741
2023-01-21T02:59:40.024Z,109.5914
2023-01-21T03:04:41.617Z,108.70588
2023-01-21T03:09:43.397Z,108.70588
2023-01-21T03:14:46.010Z,107.82979
2023-01-21T03:19:47.595Z,105.67979
2023-01-21T03:24:49.221Z,105.67979
2023-01-21T03:29:51.005Z,104.83551
2023-01-21T03:34:52.688Z,104.41667
2023-01-21T03:39:54.209Z,101.94872
2023-01-21T03:44:55.901Z,102.76289
2023-01-21T03:49:57.970Z,101.94872
2023-01-21T03:54:59.934Z,103.58549
2023-01-21T04:00:01.484Z,108.26667
2023-01-21T04:05:03.312Z,112.76712
2023-01-21T04:10:05.139Z,117.52113
2023-01-21T04:15:07.123Z,118.0113
2023-01-21T04:20:08.774Z,119.49858
2023-01-21T04:25:10.492Z,118.50425
2023-01-21T04:30:12.024Z,115.11111
2023-01-21T04:35:13.749Z,115.58774
2023-01-21T04:40:15.650Z,120
2023-01-21T04:45:17.474Z,117.03371
2023-01-21T04:50:19.383Z,122.55072
2023-01-21T04:55:20.975Z,124.64516
2023-01-21T05:00:22.573Z,125.71091
2023-01-21T05:05:24.250Z,122.55072
2023-01-21T05:10:26.061Z,129.54217
2023-01-21T05:15:28.172Z,128.98498
2023-01-21T05:20:30.298Z,124.11696
2023-01-21T05:25:32.259Z,130.10272
2023-01-21T05:30:34.312Z,123.06977
2023-01-21T05:35:36.226Z,130.66667
2023-01-21T05:40:38.179Z,131.23404
2023-01-21T05:45:40.337Z,130.10272
2023-01-21T05:50:42.313Z,135.30435
2023-01-21T05:55:44.157Z,130.10272
2023-01-21T06:00:45.937Z,134.12346
2023-01-21T06:05:47.454Z,138.32177
2023-01-21T06:10:48.947Z,143.35275
2023-01-21T06:15:50.616Z,145.96721
2023-01-21T06:20:52.408Z,150.02007
2023-01-21T06:25:54.477Z,150.71141
2023-01-21T06:30:56.556Z,158.63415
2023-01-21T06:35:58.430Z,159.38462
2023-01-21T06:41:00.340Z,156.41379
2023-01-21T06:46:02.422Z,159.38462
2023-01-21T06:51:04.349Z,152.81356
2023-01-21T06:56:06.342Z,154.23891
2023-01-21T07:01:08.026Z,173.85075
2023-01-21T07:06:09.467Z,162.43972
2023-01-21T07:11:11.285Z,164
2023-01-21T07:16:12.956Z,148.65116
2023-01-21T07:21:14.577Z,166.38267
2023-01-21T07:26:16.243Z,157.14879
2023-01-21T07:31:17.952Z,183.68872
2023-01-21T07:36:19.819Z,182.75969
2023-01-21T07:41:21.716Z,180.01533
2023-01-21T07:46:23.743Z,197.49794
2023-01-21T07:51:25.302Z,188.44444
2023-01-21T07:56:26.901Z,215.36564
2023-01-21T08:01:28.679Z,208.37768
2023-01-21T08:06:30.669Z,170.47059
2023-01-21T08:11:32.264Z,147.97351
2023-01-21T08:16:34.356Z,125.17647
2023-01-21T08:21:36.133Z,143.35275
2023-01-21T08:26:38.385Z,131.80488
2023-01-21T08:31:39.923Z,180.92308
2023-01-21T08:36:41.800Z,193.39271
2023-01-21T08:41:43.789Z,119.49858
2023-01-21T08:46:45.768Z,149.33333
2023-01-21T08:51:47.676Z,233.20188
2023-01-21T08:56:49.656Z,200.66667
2023-01-21T10:09:06.871Z,410.66667
2023-01-21T10:14:08.515Z,425.25
2023-01-21T10:19:10.541Z,211.82609
2023-01-21T10:24:12.267Z,475.03448
2023-01-21T10:29:14.344Z,479.65217
2023-01-21T10:34:16.129Z,475.03448
2023-01-21T10:39:17.883Z,393.63504
2023-01-21T10:44:19.668Z,315.08434
2023-01-21T10:49:21.363Z,341.41935
2023-01-21T10:54:23.279Z,220.23318
2023-01-21T10:59:25.079Z,211.82609
2023-01-21T11:04:26.996Z,154.23891
2023-01-21T11:09:28.887Z,153.52381
2023-01-21T11:14:30.777Z,211.82609
2023-01-21T11:19:32.645Z,202.82353
2023-01-21T11:24:34.254Z,191.38956
2023-01-21T11:29:35.892Z,205.01695
2023-01-21T11:34:37.488Z,202.82353
2023-01-21T11:39:39.437Z,226.56881
2023-01-21T11:44:40.939Z,166.38267
2023-01-21T11:49:42.539Z,158.63415
2023-01-21T11:54:44.308Z,184.625
2023-01-21T11:59:45.847Z,252
2023-01-21T12:09:58.458Z,280.61202
2023-01-21T12:14:59.911Z,326.6087
2023-01-21T12:20:01.868Z,572.57143
2023-01-21T12:25:04.076Z,677.33333
2023-01-21T12:30:05.798Z,754.52632
2023-01-21T12:35:07.511Z,836.75362
2023-01-21T12:40:09.587Z,475.03448
2023-01-21T12:45:11.597Z,292.0226
2023-01-21T12:50:13.532Z,224
2023-01-21T12:55:15.482Z,268.21053
2023-01-21T13:00:17.430Z,252
2023-01-21T13:05:19.467Z,273.41176
2023-01-21T13:10:21.237Z,214.17544
2023-01-21T13:15:22.875Z,276.97297
2023-01-21T13:20:24.242Z,259.89744
2023-01-21T13:25:25.689Z,282.46154
2023-01-21T13:30:26.954Z,387.16547
2023-01-21T13:35:28.440Z,489.13274
2023-01-21T13:40:30.529Z,514.37037
2023-01-21T13:45:32.002Z,704.49383
2023-01-21T13:50:33.732Z,613.56522
2023-01-21T13:55:34.991Z,906.5
2023-01-21T14:00:36.766Z,988.0678
2023-01-21T14:05:38.732Z,891.69231
2023-01-21T14:10:40.557Z,921.77778
2023-01-21T14:15:42.418Z,765.33333
2023-01-21T14:20:44.302Z,970.66667
2023-01-21T14:25:45.943Z,432.88889
2023-01-21T14:30:47.456Z,461.64706
2023-01-21T14:35:48.952Z,494
2023-01-21T14:40:51.385Z,410.66667
2023-01-21T14:45:53.270Z,371.77778
2023-01-21T14:50:54.904Z,547.92157
2023-01-21T14:55:56.683Z,387.16547
2023-01-21T15:00:58.332Z,425.25
2023-01-21T15:06:00.047Z,400.2963
2023-01-21T15:11:02.118Z,466.0339
2023-01-21T15:16:04.030Z,509.13761
2023-01-21T15:21:05.798Z,525.13208
2023-01-21T15:26:07.769Z,479.65217
2023-01-21T15:31:09.725Z,288.13408
2023-01-21T15:36:11.522Z,308.49704
2023-01-21T15:41:13.881Z,509.13761
2023-01-21T15:46:15.669Z,494
2023-01-21T15:51:19.549Z,444.81301
2023-01-21T15:56:22.148Z,514.37037
2023-01-21T16:01:23.813Z,349.26316
2023-01-21T16:06:25.526Z,509.13761
2023-01-21T16:11:27.585Z,489.13274
2023-01-21T16:16:29.285Z,509.13761
2023-01-21T16:21:31.575Z,547.92157
2023-01-21T16:26:33.349Z,585.66667
2023-01-21T16:31:35.390Z,519.70093
2023-01-21T16:36:37.284Z,360.21622
2023-01-21T16:41:39.419Z,315.08434
2023-01-21T16:46:41.518Z,390.37681
2023-01-21T16:51:43.263Z,331.42138
2023-01-21T16:56:45.113Z,284.33149
2023-01-21T17:01:46.946Z,206.12766
2023-01-21T17:06:48.983Z,212.99563
2023-01-21T17:11:50.955Z,235.94313
2023-01-21T17:16:52.697Z,298.02299
2023-01-21T17:21:54.478Z,198.54545
2023-01-21T17:26:56.415Z,154.9589
2023-01-21T17:31:58.348Z,170.47059
2023-01-21T17:37:00.156Z,181.83784
2023-01-21T17:42:02.285Z,197.49794
2023-01-21T17:47:04.041Z,208.37768
2023-01-21T17:52:05.832Z,174.71161
2023-01-21T17:57:07.793Z,168
2023-01-21T18:02:09.714Z,137.10345
2023-01-21T18:07:11.398Z,128.43114
2023-01-21T18:12:13.365Z,118.50425
2023-01-21T18:17:14.803Z,136.5
2023-01-21T18:22:16.247Z,136.5
2023-01-21T18:27:17.787Z,131.80488
2023-01-21T18:32:19.481Z,142.70968
2023-01-21T18:37:21.481Z,154.9589
2023-01-21T18:42:23.141Z,154.23891
2023-01-21T18:47:24.605Z,170.47059
2023-01-21T18:52:26.058Z,196.45902
2023-01-21T18:57:27.496Z,197.49794
2023-01-21T19:02:29.059Z,211.82609
2023-01-21T19:07:30.574Z,230.51163
2023-01-21T19:12:32.403Z,233.20188
2023-01-21T19:17:34.028Z,240.15385
2023-01-21T19:22:35.675Z,207.24786
2023-01-21T19:27:37.371Z,185.56863
2023-01-21T19:32:38.924Z,168.81752
2023-01-21T19:37:40.532Z,186.51969
2023-01-21T19:42:42.496Z,184.625
2023-01-21T19:47:43.941Z,172.14815
2023-01-21T19:52:45.396Z,187.47826
2023-01-21T19:57:46.930Z,197.49794
2023-01-21T20:02:48.423Z,219
2023-01-21T20:07:50.037Z,207.24786
2023-01-21T20:12:52.207Z,475.03448
2023-01-21T20:17:53.955Z,360.21622
2023-01-21T20:22:55.878Z,304.23392
2023-01-21T20:27:57.908Z,298.02299
2023-01-21T20:32:59.739Z,273.41176
2023-01-21T20:38:01.229Z,266.51309
2023-01-21T20:43:03.242Z,261.52577
2023-01-21T20:48:10.044Z,241.58454
2023-01-21T20:53:11.636Z,244.4878
2023-01-21T20:58:13.390Z,227.87097
2023-01-21T21:03:15.025Z,226.56881
2023-01-21T21:08:16.496Z,235.94313
2023-01-21T21:13:18.197Z,227.87097
2023-01-21T21:18:19.960Z,219
2023-01-21T21:23:21.551Z,215.36564
2023-01-21T21:28:23.131Z,199.60166
2023-01-21T21:33:24.563Z,193.39271
2023-01-21T21:38:26.022Z,180.92308
2023-01-21T21:43:27.707Z,168.81752
2023-01-21T21:48:29.208Z,163.21708
2023-01-21T21:53:30.879Z,153.52381
2023-01-21T21:58:32.340Z,149.33333
2023-01-21T22:03:33.811Z,144.65147
2023-01-21T22:08:35.407Z,140.17834
2023-01-21T22:13:37.401Z,142.07074
2023-01-21T22:18:38.857Z,138.93671
2023-01-21T22:23:40.341Z,134.12346
2023-01-21T22:28:41.913Z,132.3792
2023-01-21T22:33:43.722Z,130.10272
2023-01-21T22:38:45.665Z,128.43114
2023-01-21T22:43:47.429Z,128.98498
2023-01-21T22:48:49.027Z,128.43114
2023-01-21T22:53:50.463Z,128.43114
2023-01-21T22:58:52.264Z,129.54217
2023-01-21T23:03:53.737Z,125.71091
2023-01-21T23:08:55.350Z,123.06977
2023-01-21T23:13:57.038Z,121.52161
2023-01-21T23:18:58.547Z,126.78932
2023-01-21T23:24:00.134Z,131.80488
2023-01-21T23:29:01.767Z,134.12346
2023-01-21T23:34:03.466Z,135.90031
2023-01-21T23:39:04.940Z,137.10345
2023-01-21T23:44:06.722Z,137.71069
2023-01-21T23:49:08.248Z,135.90031
2023-01-21T23:54:09.744Z,132.3792
2023-01-21T23:59:11.477Z,131.23404
